createdAt,value
2022-08-16T00:01:33.684Z,100253.88
2022-08-16T00:04:00.366Z,100248.44
2022-08-16T00:06:27.445Z,100246.63
2022-08-16T00:08:53.754Z,100250.06
2022-08-16T00:11:20.701Z,100244.72
2022-08-16T00:13:54.088Z,100249.22
2022-08-16T00:17:01.176Z,100238.56
2022-08-16T00:19:13.704Z,100256.41
2022-08-16T00:21:40.264Z,100244.81
2022-08-16T00:24:06.614Z,100248.50
2022-08-16T00:26:38.828Z,100244.00
2022-08-16T00:29:05.229Z,100242.28
2022-08-16T00:31:47.230Z,100246.78
2022-08-16T00:34:19.760Z,100249.63
2022-08-16T00:36:47.222Z,100250.59
2022-08-16T00:39:15.565Z,100257.88
2022-08-16T00:41:43.712Z,100259.75
2022-08-16T00:44:14.247Z,100257.06
2022-08-16T00:46:52.874Z,100257.16
2022-08-16T00:49:28.941Z,100260.81
2022-08-16T00:52:06.130Z,100263.66
2022-08-16T00:54:52.435Z,100277.19
2022-08-16T00:57:20.116Z,100272.06
2022-08-16T00:59:57.446Z,100277.50
2022-08-16T01:02:31.440Z,100274.88
2022-08-16T01:05:10.801Z,100272.47
2022-08-16T01:07:51.389Z,100270.63
2022-08-16T01:10:20.437Z,100277.03
2022-08-16T01:12:47.012Z,100281.56
2022-08-16T01:15:13.765Z,100288.75
2022-08-16T01:17:42.169Z,100282.56
2022-08-16T01:20:24.580Z,100287.94
2022-08-16T01:23:08.486Z,100283.69
2022-08-16T01:25:37.075Z,100287.31
2022-08-16T01:28:07.069Z,100293.72
2022-08-16T01:30:39.653Z,100288.34
2022-08-16T01:33:14.165Z,100295.53
2022-08-16T01:35:52.599Z,100294.75
2022-08-16T01:38:19.963Z,100297.59
2022-08-16T01:40:46.936Z,100297.66
2022-08-16T01:43:13.909Z,100294.13
2022-08-16T01:45:41.769Z,100291.50
2022-08-16T01:48:20.240Z,100291.50
2022-08-16T01:51:09.184Z,100295.97
2022-08-16T01:53:35.852Z,100303.25
2022-08-16T01:56:02.169Z,100302.38
2022-08-16T01:58:29.561Z,100308.69
2022-08-16T02:00:56.023Z,100306.09
2022-08-16T02:03:24.372Z,100308.00
2022-08-16T02:05:52.959Z,100319.59
2022-08-16T02:08:33.524Z,100316.97
2022-08-16T02:11:02.003Z,100324.25
2022-08-16T02:13:32.776Z,100325.28
2022-08-16T02:15:59.482Z,100325.28
2022-08-16T02:18:25.896Z,100321.78
2022-08-16T02:20:53.570Z,100324.53
2022-08-16T02:23:20.161Z,100331.75
2022-08-16T02:25:52.279Z,100321.88
2022-08-16T02:28:20.819Z,100317.53
2022-08-16T02:30:51.983Z,100311.38
2022-08-16T02:33:18.825Z,100309.72
2022-08-16T02:35:49.720Z,100309.00
2022-08-16T02:38:21.533Z,100312.72
2022-08-16T02:40:48.400Z,100302.13
2022-08-16T02:43:15.453Z,100310.16
2022-08-16T02:45:41.866Z,100309.31
2022-08-16T02:48:29.928Z,100305.69
2022-08-16T02:51:10.962Z,100319.97
2022-08-16T02:53:40.854Z,100323.28
2022-08-16T02:56:11.064Z,100324.88
2022-08-16T02:58:37.515Z,100322.81
2022-08-16T03:01:07.207Z,100315.66
2022-08-16T03:04:40.996Z,100322.59
2022-08-16T03:06:41.884Z,100331.34
2022-08-16T03:09:13.893Z,100324.94
2022-08-16T03:11:41.924Z,100318.56
2022-08-16T03:14:08.493Z,100330.09
2022-08-16T03:16:42.107Z,100326.47
2022-08-16T03:19:09.237Z,100336.19
2022-08-16T03:21:38.014Z,100334.41
2022-08-16T03:24:05.156Z,100336.91
2022-08-16T03:26:31.930Z,100327.91
2022-08-16T03:28:58.375Z,100325.06
2022-08-16T03:31:25.821Z,100326.81
2022-08-16T03:34:01.230Z,100328.53
2022-08-16T03:36:30.789Z,100333.91
2022-08-16T03:38:59.555Z,100334.59
2022-08-16T03:41:29.602Z,100343.50
2022-08-16T03:44:13.499Z,100338.41
2022-08-16T03:46:59.784Z,100333.72
2022-08-16T03:49:36.407Z,100323.38
2022-08-16T03:52:03.635Z,100323.97
2022-08-16T03:54:30.166Z,100334.06
2022-08-16T03:56:58.279Z,100334.13
2022-08-16T03:59:25.049Z,100350.56
2022-08-16T04:01:53.585Z,100353.50
2022-08-16T04:04:32.268Z,100366.03
2022-08-16T04:07:00.050Z,100372.63
2022-08-16T04:09:26.425Z,100375.56
2022-08-16T04:11:52.763Z,100390.75
2022-08-16T04:14:32.664Z,100393.69
2022-08-16T04:17:00.907Z,100394.03
2022-08-16T04:19:31.895Z,100398.50
2022-08-16T04:21:58.620Z,100402.06
2022-08-16T04:24:28.673Z,100396.78
2022-08-16T04:26:55.334Z,100403.09
2022-08-16T04:29:24.469Z,100410.19
2022-08-16T04:31:55.630Z,100400.53
2022-08-16T04:34:24.857Z,100412.03
2022-08-16T04:36:52.711Z,100401.25
2022-08-16T04:39:19.927Z,100408.16
2022-08-16T04:41:57.085Z,100401.00
2022-08-16T04:44:53.229Z,100404.47
2022-08-16T04:47:21.852Z,100392.91
2022-08-16T04:49:50.891Z,100384.75
2022-08-16T04:52:33.790Z,100388.31
2022-08-16T04:55:03.366Z,100382.84
2022-08-16T04:57:30.379Z,100378.25
2022-08-16T04:59:57.030Z,100380.88
2022-08-16T05:02:41.878Z,100387.19
2022-08-16T05:05:17.185Z,100393.41
2022-08-16T05:07:58.257Z,100398.69
2022-08-16T05:10:27.209Z,100403.19
2022-08-16T05:12:53.821Z,100392.53
2022-08-16T05:15:20.742Z,100400.63
2022-08-16T05:17:48.695Z,100390.00
2022-08-16T05:20:38.495Z,100389.91
2022-08-16T05:23:11.827Z,100395.34
2022-08-16T05:25:47.887Z,100398.84
2022-08-16T05:28:15.489Z,100408.63
2022-08-16T05:30:43.226Z,100406.00
2022-08-16T05:33:16.157Z,100402.44
2022-08-16T05:35:43.306Z,100394.41
2022-08-16T05:38:32.407Z,100402.44
2022-08-16T05:40:59.926Z,100407.72
2022-08-16T05:43:26.924Z,100409.56
2022-08-16T05:45:59.398Z,100410.34
2022-08-16T05:48:26.865Z,100407.59
2022-08-16T05:50:54.119Z,100411.94
2022-08-16T05:53:20.555Z,100415.28
2022-08-16T05:55:50.986Z,100426.69
2022-08-16T05:58:31.584Z,100424.63
2022-08-16T06:00:59.701Z,100426.28
2022-08-16T06:03:26.030Z,100433.19
2022-08-16T06:05:55.989Z,100430.41
2022-08-16T06:08:32.289Z,100439.19
2022-08-16T06:11:11.108Z,100435.19
2022-08-16T06:13:37.845Z,100432.38
2022-08-16T06:16:08.794Z,100428.69
2022-08-16T06:18:45.179Z,100434.78
2022-08-16T06:21:12.282Z,100432.16
2022-08-16T06:23:38.762Z,100434.78
2022-08-16T06:26:07.684Z,100437.28
2022-08-16T06:28:36.164Z,100436.00
2022-08-16T06:31:04.713Z,100440.34
2022-08-16T06:33:41.551Z,100443.66
2022-08-16T06:36:09.142Z,100446.16
2022-08-16T06:38:36.095Z,100456.75
2022-08-16T06:41:12.385Z,100461.59
2022-08-16T06:43:40.184Z,100461.28
2022-08-16T06:46:09.719Z,100457.50
2022-08-16T06:48:36.635Z,100455.31
2022-08-16T06:51:09.555Z,100455.75
2022-08-16T06:53:36.719Z,100456.47
2022-08-16T06:56:05.850Z,100452.03
2022-08-16T06:58:33.032Z,100445.72
2022-08-16T07:01:00.685Z,100457.34
2022-08-16T07:03:32.233Z,100451.66
2022-08-16T07:05:59.395Z,100460.81
2022-08-16T07:08:27.419Z,100458.53
2022-08-16T07:10:54.025Z,100459.28
2022-08-16T07:13:43.695Z,100456.31
2022-08-16T07:16:12.060Z,100453.41
2022-08-16T07:19:01.347Z,100456.94
2022-08-16T07:21:45.732Z,100462.44
2022-08-16T07:24:30.093Z,100461.31
2022-08-16T07:26:57.845Z,100458.06
2022-08-16T07:29:24.520Z,100454.97
2022-08-16T07:31:50.832Z,100452.75
2022-08-16T07:34:20.200Z,100453.31
2022-08-16T07:37:04.503Z,100453.69
2022-08-16T07:39:33.790Z,100444.75
2022-08-16T07:42:00.684Z,100448.59
2022-08-16T07:46:55.598Z,100448.66
2022-08-16T07:49:23.292Z,100446.22
2022-08-16T07:51:49.967Z,100461.94
2022-08-16T07:54:32.436Z,100461.84
2022-08-16T07:57:05.918Z,100468.72
2022-08-16T07:59:42.715Z,100465.78
2022-08-16T08:02:12.706Z,100475.16
2022-08-16T08:04:46.344Z,100480.28
2022-08-16T08:07:14.499Z,100473.06
2022-08-16T08:09:43.419Z,100476.56
2022-08-16T08:12:10.259Z,100489.75
2022-08-16T08:14:56.552Z,100485.44
2022-08-16T08:17:22.967Z,100481.13
2022-08-16T08:19:53.131Z,100480.81
2022-08-16T08:22:22.225Z,100483.69
2022-08-16T08:24:48.747Z,100492.91
2022-08-16T08:27:23.122Z,100492.63
2022-08-16T08:30:49.945Z,100493.31
2022-08-16T08:32:59.447Z,100501.56
2022-08-16T08:35:24.372Z,100498.00
2022-08-16T08:37:54.991Z,100499.19
2022-08-16T08:40:24.314Z,100500.38
2022-08-16T08:42:52.119Z,100502.19
2022-08-16T08:45:47.128Z,100497.22
2022-08-16T08:48:11.424Z,100496.66
2022-08-16T08:50:58.006Z,100501.13
2022-08-16T08:53:30.545Z,100505.16
2022-08-16T08:55:58.898Z,100514.88
2022-08-16T08:58:25.998Z,100513.69
2022-08-16T09:01:01.673Z,100516.13
2022-08-16T09:03:28.528Z,100518.66
2022-08-16T09:05:59.171Z,100519.41
2022-08-16T09:08:27.290Z,100516.41
2022-08-16T09:11:02.065Z,100520.00
2022-08-16T09:13:32.714Z,100516.47
2022-08-16T09:15:59.433Z,100516.78
2022-08-16T09:18:35.680Z,100518.41
2022-08-16T09:21:03.220Z,100518.97
2022-08-16T09:23:36.682Z,100515.06
2022-08-16T09:26:44.129Z,100523.94
2022-08-16T09:29:17.062Z,100517.09
2022-08-16T09:31:41.324Z,100522.28
2022-08-16T09:34:09.137Z,100528.59
2022-08-16T09:36:37.004Z,100519.47
2022-08-16T09:39:15.724Z,100523.50
2022-08-16T09:41:43.090Z,100525.94
2022-08-16T09:45:11.105Z,100525.63
2022-08-16T09:47:10.619Z,100529.88
2022-08-16T09:49:37.586Z,100531.22
2022-08-16T09:52:09.440Z,100528.34
2022-08-16T09:54:36.918Z,100519.53
2022-08-16T09:57:03.634Z,100521.31
2022-08-16T09:59:31.163Z,100518.47
2022-08-16T10:02:26.197Z,100509.72
2022-08-16T10:04:54.349Z,100517.41
2022-08-16T10:07:21.500Z,100519.13
2022-08-16T10:09:54.986Z,100519.44
2022-08-16T10:12:42.530Z,100530.25
2022-08-16T10:15:09.929Z,100528.56
2022-08-16T10:17:42.636Z,100528.44
2022-08-16T10:20:11.333Z,100534.34
2022-08-16T10:22:45.156Z,100539.56
2022-08-16T10:25:11.518Z,100542.00
2022-08-16T10:28:28.275Z,100538.28
2022-08-16T10:30:44.241Z,100548.44
2022-08-16T10:33:11.539Z,100543.63
2022-08-16T10:35:46.652Z,100550.16
2022-08-16T10:38:27.396Z,100553.88
2022-08-16T10:40:54.592Z,100551.06
2022-08-16T10:43:20.936Z,100552.91
2022-08-16T10:45:59.895Z,100557.78
2022-08-16T10:48:28.866Z,100554.06
2022-08-16T10:50:58.677Z,100570.25
2022-08-16T10:53:33.094Z,100559.22
2022-08-16T10:56:40.120Z,100557.69
2022-08-16T10:58:51.880Z,100556.72
2022-08-16T11:01:43.180Z,100562.75
2022-08-16T11:05:04.635Z,100568.00
2022-08-16T11:09:42.980Z,100568.41
2022-08-16T11:12:13.758Z,100565.13
2022-08-16T11:15:11.235Z,100569.34
2022-08-16T11:17:27.543Z,100577.41
2022-08-16T11:20:40.646Z,100567.56
2022-08-16T11:22:47.547Z,100577.03
2022-08-16T11:28:10.738Z,100584.66
2022-08-16T11:30:39.429Z,100569.06
2022-08-16T11:33:06.275Z,100585.66
2022-08-16T11:38:47.162Z,100591.28
2022-08-16T11:41:09.108Z,100591.13
2022-08-16T11:43:37.367Z,100591.59
2022-08-16T11:46:43.236Z,100597.50
2022-08-16T11:49:01.162Z,100596.31
2022-08-16T11:51:28.330Z,100595.19
2022-08-16T11:53:54.758Z,100591.69
2022-08-16T11:56:51.887Z,100593.63
2022-08-16T11:59:07.726Z,100595.59
2022-08-16T12:01:44.347Z,100587.41
2022-08-16T12:04:22.243Z,100587.84
2022-08-16T12:06:48.781Z,100584.00
2022-08-16T12:09:16.428Z,100585.00
2022-08-16T12:11:43.800Z,100578.19
2022-08-16T12:14:13.697Z,100579.13
2022-08-16T12:16:40.088Z,100582.56
2022-08-16T12:19:15.199Z,100582.59
2022-08-16T12:21:59.290Z,100582.00
2022-08-16T12:24:26.549Z,100585.91
2022-08-16T12:26:53.791Z,100585.56
2022-08-16T12:29:20.440Z,100585.41
2022-08-16T12:32:01.169Z,100582.09
2022-08-16T12:34:33.513Z,100587.16
2022-08-16T12:37:02.444Z,100597.88
2022-08-16T12:39:29.321Z,100582.47
2022-08-16T12:41:56.278Z,100580.19
2022-08-16T12:44:25.123Z,100572.53
2022-08-16T12:47:11.909Z,100575.06
2022-08-16T12:49:42.094Z,100575.56
2022-08-16T12:52:08.818Z,100576.53
2022-08-16T12:54:36.073Z,100573.44
2022-08-16T12:57:03.513Z,100576.41
2022-08-16T12:59:31.201Z,100582.47
2022-08-16T13:01:59.344Z,100582.25
2022-08-16T13:04:28.746Z,100583.81
2022-08-16T13:07:00.616Z,100582.53
2022-08-16T13:09:29.047Z,100582.63
2022-08-16T13:12:00.061Z,100577.38
2022-08-16T13:14:33.532Z,100584.28
2022-08-16T13:17:01.084Z,100584.13
2022-08-16T13:19:55.945Z,100590.97
2022-08-16T13:22:19.530Z,100582.56
2022-08-16T13:24:45.917Z,100580.47
2022-08-16T13:27:13.034Z,100581.25
2022-08-16T13:29:44.151Z,100588.31
2022-08-16T13:32:10.878Z,100592.78
2022-08-16T13:34:57.205Z,100589.69
2022-08-16T13:37:23.551Z,100588.97
2022-08-16T13:39:49.951Z,100591.72
2022-08-16T13:42:16.457Z,100587.44
2022-08-16T13:44:56.632Z,100593.66
2022-08-16T13:47:25.294Z,100590.38
2022-08-16T13:49:56.821Z,100590.19
2022-08-16T13:52:23.322Z,100585.22
2022-08-16T13:54:51.496Z,100586.19
2022-08-16T13:57:17.814Z,100591.88
2022-08-16T13:59:44.168Z,100592.97
2022-08-16T14:02:12.391Z,100595.91
2022-08-16T14:04:41.835Z,100595.84
2022-08-16T14:07:10.411Z,100588.47
2022-08-16T14:09:37.274Z,100595.22
2022-08-16T14:12:09.802Z,100606.97
2022-08-16T14:14:43.871Z,100616.28
2022-08-16T14:17:10.488Z,100616.28
2022-08-16T14:19:36.925Z,100622.09
2022-08-16T14:22:30.894Z,100632.50
2022-08-16T14:24:58.694Z,100642.66
2022-08-16T14:27:26.664Z,100639.31
2022-08-16T14:29:54.108Z,100639.31
2022-08-16T14:32:33.035Z,100633.41
2022-08-16T14:35:02.347Z,100640.84
2022-08-16T14:37:29.162Z,100647.84
2022-08-16T14:39:58.322Z,100642.66
2022-08-16T14:42:25.092Z,100641.22
2022-08-16T14:44:52.058Z,100632.59
2022-08-16T14:47:20.577Z,100634.16
2022-08-16T14:49:46.905Z,100629.19
2022-08-16T14:52:20.329Z,100634.63
2022-08-16T14:55:01.981Z,100621.44
2022-08-16T14:57:28.371Z,100612.06
2022-08-16T14:59:55.195Z,100617.69
2022-08-16T15:02:34.246Z,100616.88
2022-08-16T15:05:03.175Z,100604.81
2022-08-16T15:07:33.100Z,100607.97
2022-08-16T15:10:03.943Z,100605.47
2022-08-16T15:12:33.571Z,100603.19
2022-08-16T15:15:12.505Z,100609.19
2022-08-16T15:17:40.726Z,100611.00
2022-08-16T15:20:08.572Z,100612.16
2022-08-16T15:22:37.395Z,100607.13
2022-08-16T15:25:14.997Z,100608.44
2022-08-16T15:27:42.393Z,100610.25
2022-08-16T15:30:57.243Z,100613.03
2022-08-16T15:33:01.179Z,100614.44
2022-08-16T15:35:27.751Z,100623.16
2022-08-16T15:37:56.501Z,100625.41
2022-08-16T15:40:32.433Z,100626.75
2022-08-16T15:43:02.514Z,100627.44
2022-08-16T15:45:47.873Z,100626.63
2022-08-16T15:48:28.565Z,100630.31
2022-08-16T15:50:57.191Z,100627.03
2022-08-16T15:53:24.062Z,100635.03
2022-08-16T15:55:51.924Z,100630.59
2022-08-16T15:58:35.767Z,100631.78
2022-08-16T16:01:05.078Z,100632.66
2022-08-16T16:03:34.690Z,100633.75
2022-08-16T16:06:02.404Z,100636.31
2022-08-16T16:08:29.403Z,100637.09
2022-08-16T16:10:58.273Z,100641.22
2022-08-16T16:13:24.919Z,100633.72
2022-08-16T16:15:53.405Z,100634.91
2022-08-16T16:18:20.416Z,100639.00
2022-08-16T16:20:48.420Z,100648.56
2022-08-16T16:23:17.536Z,100646.47
2022-08-16T16:25:44.851Z,100649.69
2022-08-16T16:28:12.885Z,100641.47
2022-08-16T16:30:58.573Z,100645.47
2022-08-16T16:33:26.114Z,100642.78
2022-08-16T16:35:56.971Z,100647.00
2022-08-16T16:38:30.468Z,100651.44
2022-08-16T16:40:58.168Z,100644.75
2022-08-16T16:43:26.009Z,100646.22
2022-08-16T16:45:58.763Z,100635.97
2022-08-16T16:48:34.348Z,100651.25
2022-08-16T16:51:04.241Z,100646.88
2022-08-16T16:53:37.654Z,100640.41
2022-08-16T16:56:04.619Z,100647.00
2022-08-16T16:58:54.349Z,100647.53
2022-08-16T17:01:21.171Z,100651.69
2022-08-16T17:04:02.858Z,100650.16
2022-08-16T17:06:40.259Z,100649.91
2022-08-16T17:09:10.642Z,100650.69
2022-08-16T17:11:39.753Z,100660.38
2022-08-16T17:14:07.064Z,100663.09
2022-08-16T17:16:53.357Z,100661.06
2022-08-16T17:19:19.769Z,100664.75
2022-08-16T17:21:48.401Z,100668.31
2022-08-16T17:24:17.918Z,100666.53
2022-08-16T17:26:49.007Z,100674.69
2022-08-16T17:29:15.784Z,100677.34
2022-08-16T17:31:43.733Z,100681.88
2022-08-16T17:34:30.357Z,100679.00
2022-08-16T17:36:58.896Z,100686.38
2022-08-16T17:39:29.297Z,100697.72
2022-08-16T17:41:56.849Z,100689.19
2022-08-16T17:44:23.179Z,100695.97
2022-08-16T17:46:52.272Z,100685.59
2022-08-16T17:49:18.999Z,100691.63
2022-08-16T17:51:45.305Z,100695.22
2022-08-16T17:54:20.335Z,100701.34
2022-08-16T17:56:57.229Z,100709.88
2022-08-16T17:59:24.166Z,100712.09
2022-08-16T18:01:50.527Z,100706.09
2022-08-16T18:04:49.584Z,100725.53
2022-08-16T18:07:05.197Z,100725.66
2022-08-16T18:09:31.557Z,100727.22
2022-08-16T18:11:58.592Z,100730.16
2022-08-16T18:14:52.360Z,100734.28
2022-08-16T18:17:12.593Z,100741.31
2022-08-16T18:19:38.926Z,100750.75
2022-08-16T18:22:20.351Z,100747.06
2022-08-16T18:24:47.850Z,100750.69
2022-08-16T18:27:24.672Z,100755.88
2022-08-16T18:29:52.984Z,100753.94
2022-08-16T18:32:24.519Z,100753.00
2022-08-16T18:34:51.803Z,100755.28
2022-08-16T18:37:18.104Z,100755.31
2022-08-16T18:39:44.514Z,100757.13
2022-08-16T18:42:11.771Z,100763.25
2022-08-16T18:44:40.170Z,100767.50
2022-08-16T18:47:06.891Z,100775.28
2022-08-16T18:49:33.830Z,100773.09
2022-08-16T18:52:00.791Z,100772.78
2022-08-16T18:54:28.206Z,100773.38
2022-08-16T18:56:57.549Z,100775.66
2022-08-16T18:59:28.389Z,100777.81
2022-08-16T19:02:00.429Z,100774.53
2022-08-16T19:04:48.998Z,100780.16
2022-08-16T19:07:22.724Z,100782.53
2022-08-16T19:09:49.901Z,100780.94
2022-08-16T19:12:16.327Z,100788.22
2022-08-16T19:14:44.149Z,100788.38
2022-08-16T19:17:11.244Z,100792.00
2022-08-16T19:19:37.775Z,100788.69
2022-08-16T19:22:05.839Z,100798.63
2022-08-16T19:24:32.237Z,100804.19
2022-08-16T19:26:58.633Z,100810.50
2022-08-16T19:29:24.944Z,100803.63
2022-08-16T19:31:51.309Z,100812.00
2022-08-16T19:34:17.984Z,100811.28
2022-08-16T19:36:44.335Z,100817.13
2022-08-16T19:39:13.721Z,100828.28
2022-08-16T19:41:41.611Z,100835.72
2022-08-16T19:44:08.567Z,100823.63
2022-08-16T19:46:35.456Z,100836.50
2022-08-16T19:49:02.101Z,100836.84
2022-08-16T19:51:28.515Z,100840.34
2022-08-16T19:53:54.855Z,100835.69
2022-08-16T19:56:25.537Z,100842.19
2022-08-16T19:59:17.643Z,100845.97
2022-08-16T20:01:42.064Z,100838.22
2022-08-16T20:04:11.881Z,100843.84
2022-08-16T20:06:39.034Z,100846.97
2022-08-16T20:09:05.944Z,100843.75
2022-08-16T20:11:32.259Z,100852.03
2022-08-16T20:13:59.275Z,100848.81
2022-08-16T20:16:25.631Z,100855.38
2022-08-16T20:18:51.944Z,100861.09
2022-08-16T20:21:19.141Z,100849.75
2022-08-16T20:23:45.516Z,100864.22
2022-08-16T20:26:11.883Z,100856.41
2022-08-16T20:28:53.492Z,100858.38
2022-08-16T20:31:22.054Z,100858.50
2022-08-16T20:33:48.381Z,100855.81
2022-08-16T20:36:16.386Z,100860.38
2022-08-16T20:38:45.717Z,100867.47
2022-08-16T20:41:12.116Z,100864.81
2022-08-16T20:43:38.518Z,100870.16
2022-08-16T20:46:04.828Z,100865.75
2022-08-16T20:48:31.184Z,100880.34
2022-08-16T20:50:57.563Z,100882.47
2022-08-16T20:53:23.905Z,100889.22
2022-08-16T20:55:50.322Z,100887.78
2022-08-16T20:58:16.676Z,100891.59
2022-08-16T21:00:43.060Z,100885.47
2022-08-16T21:03:10.814Z,100884.66
2022-08-16T21:05:37.200Z,100881.41
2022-08-16T21:08:27.902Z,100895.00
2022-08-16T21:10:50.521Z,100893.50
2022-08-16T21:13:17.431Z,100895.28
2022-08-16T21:15:44.604Z,100911.56
2022-08-16T21:18:11.014Z,100905.31
2022-08-16T21:20:37.820Z,100903.59
2022-08-16T21:23:05.523Z,100906.94
2022-08-16T21:25:32.669Z,100910.56
2022-08-16T21:28:41.999Z,100908.69
2022-08-16T21:30:46.818Z,100901.78
2022-08-16T21:33:14.621Z,100901.03
2022-08-16T21:35:42.552Z,100914.38
2022-08-16T21:38:29.053Z,100915.44
2022-08-16T21:40:56.570Z,100918.72
2022-08-16T21:43:23.267Z,100924.91
2022-08-16T21:45:51.924Z,100912.31
2022-08-16T21:48:34.843Z,100912.88
2022-08-16T21:51:12.574Z,100920.56
2022-08-16T21:53:39.162Z,100921.63
2022-08-16T21:56:05.609Z,100921.00
2022-08-16T21:58:32.032Z,100921.94
2022-08-16T22:00:58.447Z,100921.25
2022-08-16T22:03:24.792Z,100926.53
2022-08-16T22:06:11.022Z,100921.25
2022-08-16T22:08:39.490Z,100927.53
2022-08-16T22:11:16.512Z,100924.09
2022-08-16T22:13:42.905Z,100929.44
2022-08-16T22:16:17.950Z,100934.91
2022-08-16T22:18:44.396Z,100942.06
2022-08-16T22:21:18.888Z,100945.63
2022-08-16T22:23:45.223Z,100946.47
2022-08-16T22:26:21.448Z,100957.19
2022-08-16T22:28:57.888Z,100957.28
2022-08-16T22:31:24.228Z,100950.16
2022-08-16T22:33:50.669Z,100961.81
2022-08-16T22:36:17.017Z,100958.22
2022-08-16T22:38:54.611Z,100962.63
2022-08-16T22:41:23.459Z,100960.00
2022-08-16T22:43:49.799Z,100965.44
2022-08-16T22:46:16.138Z,100964.78
2022-08-16T22:48:43.085Z,100964.03
2022-08-16T22:51:09.472Z,100962.38
2022-08-16T22:53:37.464Z,100963.47
2022-08-16T22:56:04.183Z,100962.78
2022-08-16T22:58:34.183Z,100959.44
2022-08-16T23:01:04.435Z,100965.91
2022-08-16T23:03:30.941Z,100972.34
2022-08-16T23:06:00.224Z,100968.06
2022-08-16T23:08:32.255Z,100965.56
2022-08-16T23:11:06.226Z,100964.88
2022-08-16T23:13:32.900Z,100963.25
2022-08-16T23:16:02.210Z,100969.69
2022-08-16T23:18:29.484Z,100961.94
2022-08-16T23:20:56.833Z,100964.75
2022-08-16T23:23:25.522Z,100963.13
2022-08-16T23:25:55.125Z,100963.25
2022-08-16T23:28:22.621Z,100959.78
2022-08-16T23:30:50.220Z,100955.50
2022-08-16T23:33:17.243Z,100955.72
2022-08-16T23:35:45.842Z,100952.25
2022-08-16T23:38:38.217Z,100948.03
2022-08-16T23:41:00.488Z,100948.94
2022-08-16T23:43:28.928Z,100956.94
2022-08-16T23:45:56.546Z,100957.78
2022-08-16T23:48:25.933Z,100948.81
2022-08-16T23:50:53.330Z,100947.75
2022-08-16T23:53:22.919Z,100943.31
2022-08-16T23:55:53.324Z,100939.00
2022-08-16T23:58:26.355Z,100944.47
